Radiosonde details



Informationen :

Serial : Y0542687
Type : Vaisala RS41-NG
Date of production : 29.01.2026
Frequency : 404.800MHz
Launchsite : Boise Air Terminal
Nearest town : Cascade, US (57.2km)

Altitude (Max) : 13910m at 2026-09-01 23:47:43
Speed (Max) : 109km/h at altitude 10321m

Average speed : 53km/h
Average ascent rate : 5m/s
Average descent rate : -3m/s
Ascent rate (Max) : 8.6m/s
Descent rate (Max): -4.3m/s

First frame :
KE7DJD at 2026-09-01 23:06:20 at altitude 1810m (OG: 1768m)
Last frame :
KE7DJD at 2026-09-02 02:19:53 at altitude 4237m (OG: 4195m)

Flighttime : 3h13m33s
Ascent time : 41m23s
Descent time : 2h32m10s
Uptime : -
Killtimer : 7h0m

Distance (Straight line distance): 123km

Distance (Route):


Frames : 205


Measurement :

Temperature : -2.3°C
Humidity : 83.6%
Pressure : 0hPa


Vertical profile (SkewT) :


Elevation profile :



Receiving stations :


Receiver Frames First received Last received
KE7DJD 205 2026-09-01 23:06:20 2026-09-02 02:19:53

Share per receiver :



All frames :


Receiver Date Latitude Longitude Direction Speed Altitude Climb Temperature Humidity Pressure Voltage Killtimer Uptime BKT XDATA
KE7DJD2026-09-02 02:19:5344.47314-115.3227021°68km/h4237m-4.1m/s-2.3°C83.6%0hPa0V07:00:0000:00:0000:00:00
KE7DJD2026-09-02 02:19:3244.47009-115.3240728°57km/h4318m-3.8m/s-2.8°C84.5%0hPa0V07:00:0000:00:0000:00:00
KE7DJD2026-09-02 02:19:1144.46692-115.3256816°64km/h4398m-4.3m/s-3.5°C87.2%0hPa0V07:01:0000:00:0000:00:00
KE7DJD2026-09-02 02:18:2544.46099-115.3284128°60km/h4585m-3.6m/s-4.5°C88.0%0hPa0V07:02:0000:00:0000:00:00
KE7DJD2026-09-02 02:18:0444.45822-115.3297321°51km/h4671m-3.3m/s-4.9°C90.8%0hPa0V07:02:0000:00:0000:00:00
KE7DJD2026-09-02 02:17:4344.45586-115.3316126°55km/h4740m-3.2m/s-5.3°C89.3%0hPa0V07:02:0000:00:0000:00:00
KE7DJD2026-09-02 02:17:2244.45357-115.3334128°57km/h4810m-3.2m/s-5.6°C89.4%0hPa0V07:02:0000:00:0000:00:00
KE7DJD2026-09-02 02:17:0144.45134-115.3353935°58km/h4880m-3.0m/s-5.9°C90.0%0hPa0V07:02:0000:00:0000:00:00
KE7DJD2026-09-02 02:16:4044.44915-115.3374546°51km/h4947m-3.5m/s-6.2°C89.7%0hPa0V07:03:0000:00:0000:00:00
KE7DJD2026-09-02 02:16:2044.44716-115.3395648°44km/h5008m-3.1m/s-6.5°C89.5%0hPa0V07:03:0000:00:0000:00:00
KE7DJD2026-09-02 02:15:5944.44501-115.3418941°44km/h5080m-3.8m/s-7.0°C88.9%0hPa0V07:04:0000:00:0000:00:00
KE7DJD2026-09-02 02:15:3944.44297-115.3442134°47km/h5154m-3.8m/s-7.4°C89.0%0hPa0V07:04:0000:00:0000:00:00
KE7DJD2026-09-02 02:15:1944.44111-115.3463739°57km/h5223m-3.7m/s-7.8°C88.6%0hPa0V07:04:0000:00:0000:00:00
KE7DJD2026-09-02 02:14:5844.43908-115.3484950°51km/h5294m-3.0m/s-8.3°C90.3%0hPa0V07:05:0000:00:0000:00:00
KE7DJD2026-09-02 02:14:3844.43713-115.3507147°44km/h5364m-2.7m/s-8.7°C90.3%0hPa0V07:05:0000:00:0000:00:00
KE7DJD2026-09-02 02:14:1744.43509-115.3533646°46km/h5441m-3.5m/s-9.2°C89.5%0hPa0V07:06:0000:00:0000:00:00
KE7DJD2026-09-02 02:13:5744.43316-115.3560844°46km/h5518m-3.6m/s-9.7°C88.0%0hPa0V07:06:0000:00:0000:00:00
KE7DJD2026-09-02 02:13:3744.43127-115.3588941°47km/h5588m-3.1m/s-10.1°C88.0%0hPa0V07:06:0000:00:0000:00:00
KE7DJD2026-09-02 02:13:1744.42943-115.3616839°57km/h5651m-3.7m/s-10.5°C88.4%0hPa0V07:07:0000:00:0000:00:00
KE7DJD2026-09-02 02:12:5644.42742-115.3644941°62km/h5723m-3.2m/s-10.9°C87.8%0hPa0V07:07:0000:00:0000:00:00
KE7DJD2026-09-02 02:12:3544.42539-115.3671639°58km/h5789m-2.9m/s-11.3°C87.9%0hPa0V07:08:0000:00:0000:00:00
KE7DJD2026-09-02 02:12:1444.42347-115.3698047°60km/h5853m-3.6m/s-11.7°C88.9%0hPa0V07:08:0000:00:0000:00:00
KE7DJD2026-09-02 02:11:5344.42140-115.3724254°57km/h5921m-3.7m/s-12.1°C87.6%0hPa0V07:08:0000:00:0000:00:00
KE7DJD2026-09-02 02:11:3244.41933-115.3753155°53km/h5990m-3.2m/s-12.6°C87.2%0hPa0V07:08:0000:00:0000:00:00
KE7DJD2026-09-02 02:11:1244.41732-115.3779647°44km/h6054m-3.5m/s-13.0°C87.7%0hPa0V07:08:0000:00:0000:00:00
KE7DJD2026-09-02 02:10:5144.41534-115.3806252°49km/h6114m-2.9m/s-13.3°C86.9%0hPa0V07:09:0000:00:0000:00:00
KE7DJD2026-09-02 02:10:3044.41325-115.3833045°42km/h6161m-2.2m/s-13.6°C87.5%0hPa0V07:09:0000:00:0000:00:00
KE7DJD2026-09-02 02:10:0944.41130-115.3857851°42km/h6203m-2.4m/s-13.8°C87.1%0hPa0V07:09:0000:00:0000:00:00
KE7DJD2026-09-02 02:09:4944.40947-115.3885049°44km/h6239m-2.3m/s-14.0°C88.2%0hPa0V07:10:0000:00:0000:00:00
KE7DJD2026-09-02 02:09:2844.40745-115.3915236°57km/h6284m-2.3m/s-14.3°C89.0%0hPa0V07:10:0000:00:0000:00:00
KE7DJD2026-09-02 02:09:0844.40548-115.3939035°57km/h6325m-2.0m/s-14.5°C88.0%0hPa0V07:11:0000:00:0000:00:00
KE7DJD2026-09-02 02:08:4844.40343-115.3963838°62km/h6368m-2.6m/s-14.8°C89.4%0hPa0V07:11:0000:00:0000:00:00
KE7DJD2026-09-02 02:08:2744.40149-115.3987855°51km/h6427m-3.9m/s-15.1°C89.0%0hPa0V07:11:0000:00:0000:00:00
KE7DJD2026-09-02 02:08:0644.39994-115.4015364°53km/h6508m-3.7m/s-15.2°C85.1%0hPa0V07:12:0000:00:0000:00:00
KE7DJD2026-09-02 02:07:4544.39851-115.4041060°49km/h6575m-2.7m/s-15.7°C85.1%0hPa0V07:12:0000:00:0000:00:00
KE7DJD2026-09-02 02:07:2444.39697-115.4065350°49km/h6629m-3.1m/s-16.2°C87.9%0hPa0V07:13:0000:00:0000:00:00
KE7DJD2026-09-02 02:07:0444.39551-115.4085051°47km/h6694m-3.0m/s-16.5°C84.8%0hPa0V07:13:0000:00:0000:00:00
KE7DJD2026-09-02 02:06:4444.39403-115.4100151°29km/h6753m-3.1m/s-16.9°C84.2%0hPa0V07:13:0000:00:0000:00:00
KE7DJD2026-09-02 02:06:2344.39259-115.4119239°26km/h6818m-3.1m/s-17.2°C83.5%0hPa0V07:13:0000:00:0000:00:00
KE7DJD2026-09-02 02:06:0244.39138-115.4136444°22km/h6888m-3.6m/s-17.7°C82.8%0hPa0V07:13:0000:00:0000:00:00
KE7DJD2026-09-02 02:05:4144.39038-115.4152535°26km/h6959m-3.7m/s-18.2°C82.9%0hPa0V07:14:0000:00:0000:00:00
KE7DJD2026-09-02 02:05:2044.38928-115.4169342°38km/h7018m-2.1m/s-18.7°C81.8%0hPa0V07:14:0000:00:0000:00:00
KE7DJD2026-09-02 02:05:0044.38806-115.4187365°38km/h7067m-3.3m/s-18.9°C80.9%0hPa0V07:15:0000:00:0000:00:00
KE7DJD2026-09-02 02:04:3944.38693-115.4208468°40km/h7129m-3.5m/s-19.5°C81.7%0hPa0V07:15:0000:00:0000:00:00
KE7DJD2026-09-02 02:04:1944.38590-115.4229074°29km/h7201m-3.4m/s-20.0°C82.2%0hPa0V07:15:0000:00:0000:00:00
KE7DJD2026-09-02 02:03:5944.38506-115.4252250°33km/h7253m-2.3m/s-20.2°C80.7%0hPa0V07:16:0000:00:0000:00:00
KE7DJD2026-09-02 02:03:3844.38441-115.4273163°38km/h7329m-3.8m/s-20.8°C79.9%0hPa0V07:16:0000:00:0000:00:00
KE7DJD2026-09-02 02:03:1844.38371-115.4291368°35km/h7401m-2.6m/s-21.3°C81.2%0hPa0V07:17:0000:00:0000:00:00
KE7DJD2026-09-02 02:02:5744.38286-115.4309477°29km/h7470m-3.0m/s-21.8°C81.3%0hPa0V07:17:0000:00:0000:00:00
KE7DJD2026-09-02 02:02:3744.38215-115.4327280°29km/h7525m-2.3m/s-22.2°C80.2%0hPa0V07:17:0000:00:0000:00:00
KE7DJD2026-09-02 02:02:1644.38140-115.4345982°31km/h7581m-2.8m/s-22.6°C79.4%0hPa0V07:18:0000:00:0000:00:00
KE7DJD2026-09-02 02:01:5744.38068-115.4361978°24km/h7641m-4.1m/s-23.1°C79.5%0hPa0V07:18:0000:00:0000:00:00
KE7DJD2026-09-02 02:01:3544.37985-115.4378069°18km/h7716m-3.0m/s-23.7°C78.4%0hPa0V07:19:0000:00:0000:00:00
KE7DJD2026-09-02 02:01:1444.37908-115.4394643°18km/h7781m-3.1m/s-24.1°C79.1%0hPa0V07:19:0000:00:0000:00:00
KE7DJD2026-09-02 02:00:5344.37842-115.4408935°22km/h7846m-3.3m/s-24.7°C77.8%0hPa0V07:19:0000:00:0000:00:00
KE7DJD2026-09-02 02:00:3244.37779-115.4423937°29km/h7902m-2.5m/s-25.1°C78.4%0hPa0V07:19:0000:00:0000:00:00
KE7DJD2026-09-02 02:00:1144.37708-115.4438848°31km/h7950m-2.4m/s-25.5°C77.9%0hPa0V07:19:0000:00:0000:00:00
KE7DJD2026-09-02 01:59:5144.37643-115.4453467°27km/h7992m-1.2m/s-25.9°C79.5%0hPa0V07:20:0000:00:0000:00:00
KE7DJD2026-09-02 01:59:3044.37596-115.4466761°29km/h8027m-1.4m/s-26.1°C78.3%0hPa0V07:20:0000:00:0000:00:00
KE7DJD2026-09-02 01:59:1044.37551-115.4480372°29km/h8063m-1.0m/s-26.4°C78.6%0hPa0V07:20:0000:00:0000:00:00
KE7DJD2026-09-02 01:58:5044.37501-115.4494777°29km/h8082m-1.3m/s-26.5°C78.8%0hPa0V07:21:0000:00:0000:00:00
KE7DJD2026-09-02 01:58:2944.37442-115.4510571°33km/h8099m-0.7m/s-26.6°C78.5%0hPa0V07:21:0000:00:0000:00:00
KE7DJD2026-09-02 01:58:0944.37377-115.4526567°35km/h8119m-1.1m/s-26.8°C79.0%0hPa0V07:22:0000:00:0000:00:00
KE7DJD2026-09-02 01:57:4844.37303-115.4543152°35km/h8134m-0.4m/s-26.9°C78.6%0hPa0V07:22:0000:00:0000:00:00
KE7DJD2026-09-02 01:57:2744.37232-115.4559057°35km/h8142m-0.3m/s-27.0°C79.4%0hPa0V07:22:0000:00:0000:00:00
KE7DJD2026-09-02 01:57:0744.37170-115.4574959°37km/h8155m-1.1m/s-27.1°C78.3%0hPa0V07:23:0000:00:0000:00:00
KE7DJD2026-09-02 01:56:4644.37103-115.4592557°37km/h8169m-0.5m/s-27.1°C78.4%0hPa0V07:23:0000:00:0000:00:00
KE7DJD2026-09-02 01:56:2544.37035-115.4610749°35km/h8183m-0.3m/s-27.3°C79.2%0hPa0V07:24:0000:00:0000:00:00
KE7DJD2026-09-02 01:56:0444.36962-115.4629146°27km/h8184m0.1m/s-27.3°C79.7%0hPa0V07:24:0000:00:0000:00:00
KE7DJD2026-09-02 01:55:4344.36899-115.4647350°24km/h8174m0.7m/s-27.3°C80.7%0hPa0V07:24:0000:00:0000:00:00
KE7DJD2026-09-02 01:55:2244.36836-115.4668150°33km/h8159m0.9m/s-27.1°C81.7%0hPa0V07:25:0000:00:0000:00:00
KE7DJD2026-09-02 01:55:0244.36781-115.4685158°29km/h8133m1.1m/s-26.9°C82.8%0hPa0V07:25:0000:00:0000:00:00
KE7DJD2026-09-02 01:54:4244.36755-115.4699371°27km/h8126m0.7m/s-26.9°C80.3%0hPa0V07:25:0000:00:0000:00:00
KE7DJD2026-09-02 01:54:2144.36710-115.4712969°26km/h8109m1.6m/s-26.7°C81.0%0hPa0V07:25:0000:00:0000:00:00
KE7DJD2026-09-02 01:54:0144.36666-115.4721599°11km/h8080m1.0m/s-26.4°C82.9%0hPa0V07:25:0000:00:0000:00:00
KE7DJD2026-09-02 01:53:4144.36631-115.4731594°15km/h8048m1.9m/s-26.3°C81.6%0hPa0V07:26:0000:00:0000:00:00
KE7DJD2026-09-02 01:53:1944.36573-115.4744618°15km/h8017m1.9m/s-26.1°C82.3%0hPa0V07:26:0000:00:0000:00:00
KE7DJD2026-09-02 01:52:5944.36523-115.4752813km/h7992m1.1m/s-25.9°C80.5%0hPa0V07:27:0000:00:0000:00:00
KE7DJD2026-09-02 01:52:3844.36462-115.4760013km/h7969m1.5m/s-25.7°C80.7%0hPa0V07:27:0000:00:0000:00:00
KE7DJD2026-09-02 01:52:1744.36431-115.4766834°20km/h7964m0.0m/s-25.7°C79.9%0hPa0V07:28:0000:00:0000:00:00
KE7DJD2026-09-02 01:51:5744.36380-115.4774557°24km/h7980m-1.8m/s-25.6°C80.6%0hPa0V07:28:0000:00:0000:00:00
KE7DJD2026-09-02 01:51:3644.36284-115.4788648°22km/h7990m0.4m/s-25.9°C85.4%0hPa0V07:28:0000:00:0000:00:00
KE7DJD2026-09-02 01:51:1544.36196-115.4803066°20km/h7975m1.0m/s-25.6°C83.8%0hPa0V07:29:0000:00:0000:00:00
KE7DJD2026-09-02 01:50:5444.36066-115.4816712°20km/h7974m0.6m/s-25.6°C83.5%0hPa0V07:29:0000:00:0000:00:00
KE7DJD2026-09-02 01:50:3444.35974-115.4829142°38km/h7984m-0.4m/s-25.7°C80.9%0hPa0V07:30:0000:00:0000:00:00
KE7DJD2026-09-02 01:50:1344.35838-115.4843833°44km/h7977m0.7m/s-25.5°C81.8%0hPa0V07:30:0000:00:0000:00:00
KE7DJD2026-09-02 01:49:5344.35711-115.4856740°44km/h7974m1.1m/s-25.6°C82.0%0hPa0V07:30:0000:00:0000:00:00
KE7DJD2026-09-02 01:49:3244.35579-115.4869013°26km/h7963m0.0m/s-25.7°C79.4%0hPa0V07:30:0000:00:0000:00:00
KE7DJD2026-09-01 23:47:4343.90047-115.9535951°75km/h13910m4.5m/s-53.2°C2.2%0hPa0V00:00:0000:00:0000:00:00
KE7DJD2026-09-01 23:47:2243.89750-115.9577943°93km/h13810m4.4m/s-53.0°C2.3%0hPa0V00:00:0000:00:0000:00:00
KE7DJD2026-09-01 23:47:0243.89410-115.9618842°91km/h13715m3.8m/s-53.1°C2.5%0hPa0V00:00:0000:00:0000:00:00
KE7DJD2026-09-01 23:46:4243.89026-115.9662940°95km/h13619m5.2m/s-54.0°C2.8%0hPa0V00:00:0000:00:0000:00:00
KE7DJD2026-09-01 23:46:2143.88567-115.9707335°102km/h13514m5.9m/s-53.9°C3.1%0hPa0V00:00:0000:00:0000:00:00
KE7DJD2026-09-01 23:46:0143.88131-115.9747840°106km/h13415m5.4m/s-54.0°C3.4%0hPa0V00:00:0000:00:0000:00:00
KE7DJD2026-09-01 23:45:4043.87738-115.9791741°97km/h13315m5.2m/s-54.4°C3.8%0hPa0V00:00:0000:00:0000:00:00
KE7DJD2026-09-01 23:45:2043.87364-115.9831538°100km/h13224m3.9m/s-54.3°C4.2%0hPa0V00:00:0000:00:0000:00:00
KE7DJD2026-09-01 23:44:5943.86930-115.9869635°95km/h13140m3.1m/s-54.2°C4.8%0hPa0V00:00:0000:00:0000:00:00
KE7DJD2026-09-01 23:44:3843.86508-115.9904929°97km/h13062m2.2m/s-53.7°C5.3%0hPa0V00:00:0000:00:0000:00:00
KE7DJD2026-09-01 23:43:5643.85728-115.9974337°88km/h12918m2.0m/s-56.6°C10.6%0hPa0V00:00:0000:00:0000:00:00
KE7DJD2026-09-01 23:43:3643.85327-116.0008432°84km/h12842m4.1m/s-57.1°C12.0%0hPa0V00:00:0000:00:0000:00:00
KE7DJD2026-09-01 23:43:1443.84924-116.0042031°86km/h12759m5.1m/s-56.8°C12.6%0hPa0V00:00:0000:00:0000:00:00
KE7DJD2026-09-01 23:42:5543.84532-116.0071226°89km/h12669m5.1m/s-56.7°C12.6%0hPa0V00:00:0000:00:0000:00:00
KE7DJD2026-09-01 23:42:3343.84106-116.0097325°84km/h12570m5.3m/s-56.4°C12.6%0hPa0V00:00:0000:00:0000:00:00
KE7DJD2026-09-01 23:42:1443.83741-116.0120125°73km/h12467m6.5m/s-55.6°C12.3%0hPa0V00:00:0000:00:0000:00:00
KE7DJD2026-09-01 23:41:5443.83381-116.0142629°82km/h12369m3.9m/s-55.3°C12.3%0hPa0V00:00:0000:00:0000:00:00
KE7DJD2026-09-01 23:41:3443.83039-116.0165629°77km/h12269m6.1m/s-54.8°C13.8%0hPa0V00:00:0000:00:0000:00:00
KE7DJD2026-09-01 23:41:1343.82705-116.0189730°73km/h12165m5.7m/s-54.6°C16.1%0hPa0V00:00:0000:00:0000:00:00
KE7DJD2026-09-01 23:40:5343.82356-116.0218133°82km/h12059m4.0m/s-54.5°C21.9%0hPa0V00:00:0000:00:0000:00:00
KE7DJD2026-09-01 23:40:3343.82029-116.0244830°80km/h11963m5.5m/s-56.2°C34.1%0hPa0V00:00:0000:00:0000:00:00
KE7DJD2026-09-01 23:40:1243.81689-116.0271445°78km/h11855m7.1m/s-56.5°C38.2%0hPa0V00:00:0000:00:0000:00:00
KE7DJD2026-09-01 23:39:5043.81358-116.0298929°77km/h11729m5.4m/s-55.3°C33.7%0hPa0V00:00:0000:00:0000:00:00
KE7DJD2026-09-01 23:39:3143.81048-116.0325023°75km/h11632m4.1m/s-54.4°C28.7%0hPa0V00:00:0000:00:0000:00:00
KE7DJD2026-09-01 23:39:1043.80701-116.0354423°64km/h11522m6.0m/s-53.8°C23.0%0hPa0V00:00:0000:00:0000:00:00
KE7DJD2026-09-01 23:38:4943.80385-116.0396944°88km/h11391m5.1m/s-53.2°C20.2%0hPa0V00:00:0000:00:0000:00:00
KE7DJD2026-09-01 23:38:2743.80056-116.0441643°82km/h11292m6.3m/s-53.0°C21.4%0hPa0V00:00:0000:00:0000:00:00
KE7DJD2026-09-01 23:38:0743.79734-116.0488352°80km/h11187m7.8m/s-52.6°C27.6%0hPa0V00:00:0000:00:0000:00:00
KE7DJD2026-09-01 23:37:4643.79432-116.0532762°97km/h11066m6.1m/s-52.6°C41.4%0hPa0V00:00:0000:00:0000:00:00
KE7DJD2026-09-01 23:37:2743.79129-116.0586548°97km/h10947m4.5m/s-51.8°C45.2%0hPa0V00:00:0000:00:0000:00:00
KE7DJD2026-09-01 23:37:0643.78807-116.0639448°93km/h10846m3.8m/s-51.0°C49.7%0hPa0V00:00:0000:00:0000:00:00
KE7DJD2026-09-01 23:36:2643.78173-116.0745950°97km/h10635m7.1m/s-49.3°C42.6%0hPa0V00:00:0000:00:0000:00:00
KE7DJD2026-09-01 23:36:0543.77840-116.0795846°100km/h10531m6.3m/s-48.4°C48.3%0hPa0V00:00:0000:00:0000:00:00
KE7DJD2026-09-01 23:35:4543.77522-116.0847451°95km/h10429m5.3m/s-47.5°C45.1%0hPa0V00:00:0000:00:0000:00:00
KE7DJD2026-09-01 23:35:2543.77212-116.0903161°108km/h10321m6.6m/s-46.5°C42.2%0hPa0V00:00:0000:00:0000:00:00
KE7DJD2026-09-01 23:35:0443.76910-116.0959455°86km/h10195m5.8m/s-45.5°C32.7%0hPa0V00:00:0000:00:0000:00:00
KE7DJD2026-09-01 23:34:4343.76612-116.1013946°102km/h10097m3.5m/s-44.5°C32.6%0hPa0V00:00:0000:00:0000:00:00
KE7DJD2026-09-01 23:34:2343.76320-116.1068661°93km/h9954m4.3m/s-43.2°C28.7%0hPa0V00:00:0000:00:0000:00:00
KE7DJD2026-09-01 23:34:0143.76048-116.1120753°84km/h9852m4.8m/s-42.3°C29.1%0hPa0V00:00:0000:00:0000:00:00
KE7DJD2026-09-01 23:33:4143.75766-116.1172849°84km/h9763m5.3m/s-41.5°C28.5%0hPa0V00:00:0000:00:0000:00:00
KE7DJD2026-09-01 23:33:1943.75523-116.1222146°75km/h9653m8.2m/s-40.8°C40.9%0hPa0V00:00:0000:00:0000:00:00
KE7DJD2026-09-01 23:32:5843.75255-116.1261340°77km/h9553m4.0m/s-40.1°C41.5%0hPa0V00:00:0000:00:0000:00:00
KE7DJD2026-09-01 23:32:3843.75005-116.1300059°73km/h9469m3.9m/s-39.3°C36.9%0hPa0V00:00:0000:00:0000:00:00
KE7DJD2026-09-01 23:32:1743.74769-116.1340155°71km/h9384m3.5m/s-38.6°C35.1%0hPa0V00:00:0000:00:0000:00:00
KE7DJD2026-09-01 23:31:5743.74539-116.1376649°71km/h9305m4.5m/s-38.0°C44.0%0hPa0V00:00:0000:00:0000:00:00
KE7DJD2026-09-01 23:31:3543.74280-116.1416245°69km/h9224m2.8m/s-37.6°C29.4%0hPa0V00:00:0000:00:0000:00:00
KE7DJD2026-09-01 23:31:1443.74051-116.1452352°75km/h9142m4.2m/s-36.9°C25.7%0hPa0V00:00:0000:00:0000:00:00
KE7DJD2026-09-01 23:30:5343.73816-116.1487853°58km/h9059m3.2m/s-36.3°C22.6%0hPa0V00:00:0000:00:0000:00:00
KE7DJD2026-09-01 23:30:3343.73588-116.1517640°66km/h8973m3.6m/s-35.5°C19.9%0hPa0V00:00:0000:00:0000:00:00
KE7DJD2026-09-01 23:30:1343.73393-116.1546544°58km/h8881m5.5m/s-34.9°C18.7%0hPa0V00:00:0000:00:0000:00:00
KE7DJD2026-09-01 23:29:5243.73188-116.1574144°58km/h8791m2.7m/s-34.0°C19.0%0hPa0V00:00:0000:00:0000:00:00
KE7DJD2026-09-01 23:29:3143.72978-116.1603947°62km/h8704m3.8m/s-33.4°C20.7%0hPa0V00:00:0000:00:0000:00:00
KE7DJD2026-09-01 23:29:1143.72777-116.1634445°51km/h8629m5.2m/s-32.9°C18.6%0hPa0V00:00:0000:00:0000:00:00
KE7DJD2026-09-01 23:28:5043.72576-116.1662241°37km/h8516m6.1m/s-31.9°C15.7%0hPa0V00:00:0000:00:0000:00:00
KE7DJD2026-09-01 23:28:3043.72367-116.1686354°44km/h8397m4.9m/s-30.9°C10.4%0hPa0V00:00:0000:00:0000:00:00
KE7DJD2026-09-01 23:28:0943.72160-116.1710839°44km/h8295m3.4m/s-30.1°C8.3%0hPa0V00:00:0000:00:0000:00:00
KE7DJD2026-09-01 23:27:4843.71956-116.1730330°47km/h8212m3.5m/s-29.3°C7.7%0hPa0V00:00:0000:00:0000:00:00
KE7DJD2026-09-01 23:27:2843.71754-116.1745821°53km/h8124m4.4m/s-29.3°C13.4%0hPa0V00:00:0000:00:0000:00:00
KE7DJD2026-09-01 23:26:4643.71250-116.1774321°55km/h7958m4.1m/s-27.7°C11.1%0hPa0V00:00:0000:00:0000:00:00
KE7DJD2026-09-01 23:26:2443.70973-116.1788424°57km/h7877m4.4m/s-27.0°C8.2%0hPa0V00:00:0000:00:0000:00:00
KE7DJD2026-09-01 23:26:0343.70714-116.1802919°58km/h7798m3.3m/s-26.9°C9.5%0hPa0V00:00:0000:00:0000:00:00
KE7DJD2026-09-01 23:25:4243.70445-116.1819925°53km/h7721m4.2m/s-26.5°C15.4%0hPa0V00:00:0000:00:0000:00:00
KE7DJD2026-09-01 23:25:2243.70183-116.1838626°64km/h7646m4.0m/s-25.8°C11.0%0hPa0V00:00:0000:00:0000:00:00
KE7DJD2026-09-01 23:25:0243.69896-116.1858431°69km/h7573m3.8m/s-25.4°C8.0%0hPa0V00:00:0000:00:0000:00:00
KE7DJD2026-09-01 23:24:4043.69610-116.1879330°58km/h7496m4.4m/s-25.0°C9.4%0hPa0V00:00:0000:00:0000:00:00
KE7DJD2026-09-01 23:24:2043.69376-116.1895238°49km/h7411m5.5m/s-24.5°C17.4%0hPa0V00:00:0000:00:0000:00:00
KE7DJD2026-09-01 23:23:5943.69135-116.1906017°49km/h7315m3.3m/s-23.7°C21.0%0hPa0V00:00:0000:00:0000:00:00
KE7DJD2026-09-01 23:23:3843.68879-116.1916621°51km/h7237m3.1m/s-23.1°C18.2%0hPa0V00:00:0000:00:0000:00:00
KE7DJD2026-09-01 23:23:1843.68631-116.1926617°51km/h7168m3.2m/s-22.5°C14.2%0hPa0V00:00:0000:00:0000:00:00
KE7DJD2026-09-01 23:22:5743.68352-116.19370357°57km/h7089m3.5m/s-22.0°C9.4%0hPa0V00:00:0000:00:0000:00:00
KE7DJD2026-09-01 23:22:3643.68076-116.1939613°57km/h6988m3.9m/s-21.6°C10.5%0hPa0V00:00:0000:00:0000:00:00
KE7DJD2026-09-01 23:22:1543.67794-116.1944155km/h6915m5.1m/s-21.2°C11.2%0hPa0V00:00:0000:00:0000:00:00
KE7DJD2026-09-01 23:21:5543.67510-116.1949558km/h6841m3.5m/s-20.7°C12.6%0hPa0V00:00:0000:00:0000:00:00
KE7DJD2026-09-01 23:21:3443.67229-116.1957414°60km/h6765m2.3m/s-20.1°C12.1%0hPa0V00:00:0000:00:0000:00:00
KE7DJD2026-09-01 23:21:1343.66950-116.1964015°58km/h6693m3.5m/s-19.5°C13.2%0hPa0V00:00:0000:00:0000:00:00
KE7DJD2026-09-01 23:20:5343.66678-116.19682353°55km/h6586m6.9m/s-18.7°C12.6%0hPa0V00:00:0000:00:0000:00:00
KE7DJD2026-09-01 23:20:3343.66400-116.1971112°51km/h6493m5.2m/s-17.8°C12.4%0hPa0V00:00:0000:00:0000:00:00
KE7DJD2026-09-01 23:20:1143.66108-116.1974012°55km/h6396m4.5m/s-17.5°C16.7%0hPa0V00:00:0000:00:0000:00:00
KE7DJD2026-09-01 23:19:5143.65811-116.1981114°69km/h6304m4.6m/s-17.2°C28.8%0hPa0V00:00:0000:00:0000:00:00
KE7DJD2026-09-01 23:19:3043.65492-116.1990725°60km/h6211m4.3m/s-16.7°C46.8%0hPa0V00:00:0000:00:0000:00:00
KE7DJD2026-09-01 23:19:0943.65188-116.1998410°66km/h6082m3.9m/s-15.8°C64.5%0hPa0V00:00:0000:00:0000:00:00
KE7DJD2026-09-01 23:18:4843.64899-116.2005247km/h5970m8.6m/s-14.9°C65.9%0hPa0V00:00:0000:00:0000:00:00
KE7DJD2026-09-01 23:18:2843.64658-116.2008513°46km/h5857m5.9m/s-14.0°C72.4%0hPa0V00:00:0000:00:0000:00:00
KE7DJD2026-09-01 23:18:0743.64410-116.2015628°35km/h5740m5.2m/s-13.1°C70.5%0hPa0V00:00:0000:00:0000:00:00
KE7DJD2026-09-01 23:17:4643.64170-116.2017010°40km/h5617m5.8m/s-12.0°C66.6%0hPa0V00:00:0000:00:0000:00:00
KE7DJD2026-09-01 23:17:2543.63949-116.20207343°44km/h5511m6.7m/s-11.0°C60.1%0hPa0V00:00:0000:00:0000:00:00
KE7DJD2026-09-01 23:17:0443.63753-116.20198353°47km/h5394m6.0m/s-10.2°C58.8%0hPa0V00:00:0000:00:0000:00:00
KE7DJD2026-09-01 23:16:4343.63457-116.2024315°51km/h5263m7.4m/s-9.4°C62.4%0hPa0V00:00:0000:00:0000:00:00
KE7DJD2026-09-01 23:16:2343.63185-116.2025610°69km/h5139m5.9m/s-8.3°C59.6%0hPa0V00:00:0000:00:0000:00:00
KE7DJD2026-09-01 23:16:0343.62866-116.2028451km/h5014m5.6m/s-7.1°C56.0%0hPa0V00:00:0000:00:0000:00:00
KE7DJD2026-09-01 23:15:4143.62568-116.2027755km/h4907m6.1m/s-6.1°C52.9%0hPa0V00:00:0000:00:0000:00:00
KE7DJD2026-09-01 23:15:2143.62272-116.2030155km/h4810m7.5m/s-5.3°C55.3%0hPa0V00:00:0000:00:0000:00:00
KE7DJD2026-09-01 23:15:0143.61957-116.2033112°68km/h4705m5.8m/s-4.4°C55.7%0hPa0V00:00:0000:00:0000:00:00
KE7DJD2026-09-01 23:14:4143.61639-116.2040955km/h4586m5.7m/s-3.4°C53.4%0hPa0V00:00:0000:00:0000:00:00
KE7DJD2026-09-01 23:14:1943.61308-116.2046315°62km/h4474m6.6m/s-2.9°C59.3%0hPa0V00:00:0000:00:0000:00:00
KE7DJD2026-09-01 23:13:3743.60717-116.2057410°60km/h4254m6.3m/s-1.3°C61.2%0hPa0V00:00:0000:00:0000:00:00
KE7DJD2026-09-01 23:13:1643.60431-116.2057846km/h4132m5.9m/s-0.4°C60.5%0hPa0V00:00:0000:00:0000:00:00
KE7DJD2026-09-01 23:12:5543.60196-116.2063027°40km/h4018m3.7m/s0.6°C59.3%0hPa0V00:00:0000:00:0000:00:00
KE7DJD2026-09-01 23:12:3543.59977-116.2065210°58km/h3902m4.5m/s1.5°C58.7%0hPa0V00:00:0000:00:0000:00:00
KE7DJD2026-09-01 23:12:1343.59717-116.20703344°38km/h3787m6.2m/s2.6°C54.8%0hPa0V00:00:0000:00:0000:00:00
KE7DJD2026-09-01 23:11:5243.59495-116.2074623°55km/h3667m6.5m/s3.8°C51.7%0hPa0V00:00:0000:00:0000:00:00
KE7DJD2026-09-01 23:11:3243.59272-116.20762348°53km/h3560m7.0m/s4.8°C49.8%0hPa0V00:00:0000:00:0000:00:00
KE7DJD2026-09-01 23:11:1243.59061-116.20801355°44km/h3451m5.5m/s5.8°C48.3%0hPa0V00:00:0000:00:0000:00:00
KE7DJD2026-09-01 23:10:5143.58830-116.2079015°49km/h3342m6.8m/s6.7°C47.5%0hPa0V00:00:0000:00:0000:00:00
KE7DJD2026-09-01 23:10:3043.58638-116.20794353°27km/h3227m5.1m/s7.7°C49.5%0hPa0V00:00:0000:00:0000:00:00
KE7DJD2026-09-01 23:10:0943.58430-116.20766355°27km/h3122m5.1m/s8.7°C47.1%0hPa0V00:00:0000:00:0000:00:00
KE7DJD2026-09-01 23:09:4943.58239-116.20685354°27km/h3003m6.4m/s9.7°C48.3%0hPa0V00:00:0000:00:0000:00:00
KE7DJD2026-09-01 23:09:2743.58051-116.20663346°49km/h2887m5.2m/s10.8°C45.8%0hPa0V00:00:0000:00:0000:00:00
KE7DJD2026-09-01 23:09:0743.57861-116.20586358°35km/h2777m7.1m/s11.8°C43.4%0hPa0V00:00:0000:00:0000:00:00
KE7DJD2026-09-01 23:08:4743.57707-116.20555342°42km/h2641m6.5m/s13.1°C40.6%0hPa0V00:00:0000:00:0000:00:00
KE7DJD2026-09-01 23:08:2643.57543-116.20474319°31km/h2526m4.9m/s14.1°C38.2%0hPa0V00:00:0000:00:0000:00:00
KE7DJD2026-09-01 23:08:0543.57405-116.20367352°40km/h2408m6.5m/s15.2°C36.1%0hPa0V00:00:0000:00:0000:00:00
KE7DJD2026-09-01 23:07:4443.57270-116.20320334°37km/h2287m5.3m/s16.3°C34.7%0hPa0V00:00:0000:00:0000:00:00
KE7DJD2026-09-01 23:07:2343.57134-116.20290337°29km/h2168m5.9m/s17.4°C32.7%0hPa0V00:00:0000:00:0000:00:00
KE7DJD2026-09-01 23:07:0243.57019-116.2029214°38km/h2048m7.5m/s18.4°C29.5%0hPa0V00:00:0000:00:0000:00:00
KE7DJD2026-09-01 23:06:4143.56890-116.2031211°27km/h1928m5.7m/s19.4°C28.2%0hPa0V00:00:0000:00:0000:00:00
KE7DJD2026-09-01 23:06:2043.56751-116.20339346°24km/h1810m7.0m/s20.5°C26.8%0hPa0V00:00:0000:00:0000:00:00


GPX KML Map

© wettersonde.net (DO2JMG) - 2026  -  -